Weather at Baytown Airport

Public forecast

Using degrees Fahrenheit for public forecast. Weather courtesy of forecast.io.

Closest aviation weather report (METAR) to Baytown Airport

Closest report is La Porte Municipal Airport, 9.1 nm (16.9 km) SW.

2024/07/24 05:55 (retrieved 27 minutes ago)

KT41 240555Z AUTO 09003KT 10SM BKN016 BKN022 26/24 A3006 RMK AO2 T02570242 10268 20251

Closest aviation forecast (TAF) to Baytown Airport

Closest forecast is William P Hobby Airport, 19.0 nm (35.2 km) WSW.

2024/07/24 06:22 (retrieved 0 seconds ago)

TAF KHOU 240520Z 2406/2506 15005KT P6SM FEW016 BKN040 BKN250 FM240700 VRB03KT P6SM BKN015 FM241000 VRB03KT 6SM BR VCSH BKN009 FM241200 VRB05KT 6SM SHRA BR VCTS BKN015CB FM241800 13005KT 6SM SHRA BR VCTS OVC035CB FM250200 15007KT P6SM OVC025